Time;durP1;ratioP1;P1;durP2;ratioP2;P2;SDS_P1;SDS_P2;PMS_P1;PMS_P2;Temp;Humidity;BMP_temperature;BMP_pressure;BME280_temperature;BME280_humidity;BME280_pressure;Samples;Min_cycle;Max_cycle;Signal;HPM_P1;HPM_P2
2024/01/14 00:01:47;;;;;;;125.80;60.13;;;;;;;;;;4982312;28;25057;-61
2024/01/14 00:04:13;;;;;;;133.43;61.58;;;;;;;;;;4979520;28;25107;-62
2024/01/14 00:06:39;;;;;;;128.88;59.95;;;;;;;;;;4990091;28;25143;-60
2024/01/14 00:09:05;;;;;;;123.05;58.90;;;;;;;;;;4988249;28;25091;-60
2024/01/14 00:11:31;;;;;;;127.53;57.15;;;;;;;;;;4975841;28;25174;-58
2024/01/14 00:13:57;;;;;;;133.32;58.17;;;;;;;;;;4965341;28;25161;-60
2024/01/14 00:16:23;;;;;;;123.50;59.25;;;;;;;;;;4968053;28;25083;-60
2024/01/14 00:18:49;;;;;;;148.45;62.42;;;;;;;;;;4970884;28;25172;-60
2024/01/14 00:21:15;;;;;;;139.93;61.70;;;;;;;;;;4965933;28;25099;-60
2024/01/14 00:23:41;;;;;;;138.13;62.58;;;;;;;;;;4969671;28;25068;-59
2024/01/14 00:26:07;;;;;;;124.45;58.58;;;;;;;;;;4962382;28;25095;-61
2024/01/14 00:28:33;;;;;;;126.47;59.92;;;;;;;;;;4964295;28;25154;-60
2024/01/14 00:30:58;;;;;;;128.30;59.40;;;;;;;;;;4962631;28;25071;-60
2024/01/14 00:33:24;;;;;;;117.60;57.42;;;;;;;;;;4961991;28;25055;-60
2024/01/14 00:35:50;;;;;;;124.15;58.78;;;;;;;;;;4962145;28;25076;-60
2024/01/14 00:38:17;;;;;;;122.90;60.17;;;;;;;;;;4964281;28;25094;-60
2024/01/14 00:40:43;;;;;;;113.78;59.72;;;;;;;;;;4969323;28;25146;-62
2024/01/14 00:43:09;;;;;;;143.38;64.43;;;;;;;;;;4966067;28;25090;-61
2024/01/14 00:45:35;;;;;;;132.73;60.72;;;;;;;;;;4962415;28;25089;-61
2024/01/14 00:48:00;;;;;;;156.43;65.70;;;;;;;;;;4958701;28;25095;-60
2024/01/14 00:50:26;;;;;;;144.27;64.28;;;;;;;;;;4966273;28;25056;-60
2024/01/14 00:52:52;;;;;;;146.52;63.25;;;;;;;;;;4976915;28;25070;-60
2024/01/14 00:55:18;;;;;;;138.02;60.88;;;;;;;;;;4981535;28;25077;-63
2024/01/14 00:57:44;;;;;;;137.15;61.55;;;;;;;;;;4967712;28;25140;-61
2024/01/14 01:00:10;;;;;;;135.82;60.30;;;;;;;;;;4989317;28;25066;-61
2024/01/14 01:02:36;;;;;;;121.00;57.80;;;;;;;;;;4989847;28;25091;-61
2024/01/14 01:05:03;;;;;;;131.65;61.35;;;;;;;;;;4983445;28;25115;-61
2024/01/14 01:07:29;;;;;;;138.00;62.90;;;;;;;;;;4983757;28;25101;-61
2024/01/14 01:09:55;;;;;;;123.40;59.75;;;;;;;;;;4985735;28;25074;-61
2024/01/14 01:12:21;;;;;;;110.03;53.20;;;;;;;;;;4987059;28;25141;-61
2024/01/14 01:14:47;;;;;;;138.32;62.08;;;;;;;;;;4988249;28;25059;-62
2024/01/14 01:17:14;;;;;;;133.13;60.58;;;;;;;;;;4975453;28;25098;-60
2024/01/14 01:19:39;;;;;;;142.88;59.95;;;;;;;;;;4973410;28;25067;-61
2024/01/14 01:22:05;;;;;;;129.05;60.80;;;;;;;;;;4967760;28;25079;-62
2024/01/14 01:24:31;;;;;;;125.68;56.70;;;;;;;;;;4971554;28;25068;-61
2024/01/14 01:26:58;;;;;;;122.93;57.35;;;;;;;;;;4969415;28;25066;-61
2024/01/14 01:29:24;;;;;;;125.07;59.47;;;;;;;;;;4968325;28;25077;-60
2024/01/14 01:31:49;;;;;;;126.50;57.17;;;;;;;;;;4965469;28;25107;-61
2024/01/14 01:34:15;;;;;;;129.98;60.67;;;;;;;;;;4959572;28;25063;-61
2024/01/14 01:36:41;;;;;;;127.78;57.72;;;;;;;;;;4964968;28;25056;-61
2024/01/14 01:39:07;;;;;;;122.38;58.90;;;;;;;;;;4962214;28;25159;-61
2024/01/14 01:41:33;;;;;;;117.45;55.63;;;;;;;;;;4961711;28;25123;-61
2024/01/14 01:43:59;;;;;;;141.63;62.65;;;;;;;;;;4977023;28;25102;-62
2024/01/14 01:46:25;;;;;;;144.13;62.85;;;;;;;;;;4979135;28;25080;-61
2024/01/14 01:48:51;;;;;;;132.07;60.08;;;;;;;;;;4986348;28;25063;-61
2024/01/14 01:51:17;;;;;;;127.68;59.65;;;;;;;;;;4984849;28;25058;-65
2024/01/14 01:53:43;;;;;;;165.13;66.43;;;;;;;;;;4984319;28;25048;-62
2024/01/14 01:56:10;;;;;;;153.75;62.45;;;;;;;;;;4979188;28;25057;-62
2024/01/14 01:58:36;;;;;;;146.55;64.55;;;;;;;;;;4982394;28;25126;-64
2024/01/14 02:01:05;;;;;;;162.85;70.90;;;;;;;;;;4984058;28;25056;-60
2024/01/14 02:03:31;;;;;;;172.50;72.07;;;;;;;;;;4991177;28;25068;-63
2024/01/14 02:05:58;;;;;;;167.10;70.78;;;;;;;;;;4986805;28;25107;-61
2024/01/14 02:08:24;;;;;;;140.88;63.45;;;;;;;;;;4966738;28;25059;-60
2024/01/14 02:10:50;;;;;;;159.93;68.50;;;;;;;;;;4969788;28;25157;-60
2024/01/14 02:13:16;;;;;;;166.27;70.68;;;;;;;;;;4959012;28;25100;-61
2024/01/14 02:15:42;;;;;;;153.38;65.68;;;;;;;;;;4968674;28;25108;-61
2024/01/14 02:18:08;;;;;;;150.95;65.60;;;;;;;;;;4993475;28;25065;-61
2024/01/14 02:20:34;;;;;;;131.77;61.42;;;;;;;;;;4972249;28;25069;-62
2024/01/14 02:23:00;;;;;;;148.73;63.17;;;;;;;;;;4969393;28;25061;-61
2024/01/14 02:25:26;;;;;;;151.07;63.65;;;;;;;;;;4967077;28;25052;-60
2024/01/14 02:27:53;;;;;;;128.40;58.22;;;;;;;;;;4972163;28;25095;-62
2024/01/14 02:30:19;;;;;;;153.45;67.18;;;;;;;;;;4970248;28;25054;-61
2024/01/14 02:32:45;;;;;;;129.68;60.40;;;;;;;;;;4969834;28;25106;-60
2024/01/14 02:35:11;;;;;;;150.45;66.95;;;;;;;;;;4961799;28;25114;-62
2024/01/14 02:37:43;;;;;;;128.68;62.70;;;;;;;;;;4961035;28;25100;-60
2024/01/14 02:40:09;;;;;;;157.65;69.85;;;;;;;;;;4967141;28;25053;-61
2024/01/14 02:42:35;;;;;;;172.40;74.13;;;;;;;;;;4976005;28;25071;-60
2024/01/14 02:45:01;;;;;;;188.95;74.00;;;;;;;;;;4983631;28;25054;-63
2024/01/14 02:47:27;;;;;;;161.95;71.20;;;;;;;;;;4980037;28;25023;-60
2024/01/14 02:49:53;;;;;;;168.43;72.88;;;;;;;;;;4964513;28;25051;-61
2024/01/14 02:52:19;;;;;;;146.50;65.57;;;;;;;;;;4960720;28;25076;-61
2024/01/14 02:54:45;;;;;;;164.30;73.18;;;;;;;;;;4965814;28;25136;-60
2024/01/14 02:57:11;;;;;;;166.73;72.03;;;;;;;;;;4965423;28;25110;-62
2024/01/14 02:59:37;;;;;;;153.00;68.60;;;;;;;;;;4967249;28;25136;-61
2024/01/14 03:02:03;;;;;;;149.45;69.03;;;;;;;;;;4970377;28;25067;-61
2024/01/14 03:04:30;;;;;;;181.38;73.88;;;;;;;;;;4968957;28;25153;-62
2024/01/14 03:06:55;;;;;;;151.13;66.95;;;;;;;;;;4966458;28;25070;-61
2024/01/14 03:09:22;;;;;;;169.88;72.13;;;;;;;;;;4966632;28;25076;-61
2024/01/14 03:11:48;;;;;;;159.70;68.85;;;;;;;;;;4969563;28;25069;-64
2024/01/14 03:14:14;;;;;;;129.82;62.30;;;;;;;;;;4966645;28;25118;-58
2024/01/14 03:16:40;;;;;;;144.02;62.60;;;;;;;;;;4958883;28;25130;-63
2024/01/14 03:19:06;;;;;;;108.32;54.72;;;;;;;;;;4970445;28;25168;-62
2024/01/14 03:21:32;;;;;;;105.15;51.38;;;;;;;;;;4973662;28;25093;-62
2024/01/14 03:23:58;;;;;;;128.63;60.67;;;;;;;;;;4985925;28;25156;-61
2024/01/14 03:26:24;;;;;;;128.10;60.10;;;;;;;;;;4971938;28;25135;-61
2024/01/14 03:28:50;;;;;;;141.95;63.95;;;;;;;;;;4973096;28;25109;-61
2024/01/14 03:31:16;;;;;;;136.32;60.30;;;;;;;;;;4971361;28;25066;-61
2024/01/14 03:33:42;;;;;;;151.25;62.80;;;;;;;;;;4972100;28;25109;-60
2024/01/14 03:36:08;;;;;;;149.55;63.63;;;;;;;;;;4990332;28;25138;-60
2024/01/14 03:38:34;;;;;;;157.30;64.57;;;;;;;;;;4990888;28;25059;-60
2024/01/14 03:41:00;;;;;;;169.70;66.55;;;;;;;;;;4981519;28;25132;-62
2024/01/14 03:43:26;;;;;;;138.45;58.17;;;;;;;;;;4987786;28;25148;-62
2024/01/14 03:45:52;;;;;;;163.65;66.90;;;;;;;;;;4989084;28;25091;-61
2024/01/14 03:48:18;;;;;;;162.85;66.57;;;;;;;;;;4989018;28;25108;-61
2024/01/14 03:50:44;;;;;;;129.27;58.95;;;;;;;;;;4991122;28;25046;-61
2024/01/14 03:53:10;;;;;;;154.70;62.88;;;;;;;;;;4968551;28;25074;-61
2024/01/14 03:55:36;;;;;;;148.00;61.28;;;;;;;;;;4968461;28;25107;-61
2024/01/14 03:58:02;;;;;;;161.88;65.68;;;;;;;;;;4971305;28;25072;-60
2024/01/14 04:00:28;;;;;;;157.95;63.55;;;;;;;;;;4988546;28;25084;-61
2024/01/14 04:02:54;;;;;;;152.55;63.50;;;;;;;;;;4988216;28;25100;-60
2024/01/14 04:05:20;;;;;;;152.05;66.07;;;;;;;;;;4987836;28;25109;-60
2024/01/14 04:07:46;;;;;;;150.07;63.75;;;;;;;;;;4984366;28;25074;-60
2024/01/14 04:10:12;;;;;;;164.65;63.13;;;;;;;;;;4989924;28;25073;-61
2024/01/14 04:12:40;;;;;;;160.38;64.03;;;;;;;;;;4991024;28;25081;-60
2024/01/14 04:15:06;;;;;;;145.50;61.72;;;;;;;;;;4971266;28;25193;-63
2024/01/14 04:17:32;;;;;;;143.10;61.92;;;;;;;;;;4965945;28;25135;-61
2024/01/14 04:19:58;;;;;;;139.95;61.38;;;;;;;;;;4967456;28;25048;-60
2024/01/14 04:22:24;;;;;;;132.38;59.17;;;;;;;;;;4958990;28;25072;-61
2024/01/14 04:24:50;;;;;;;132.38;59.00;;;;;;;;;;4963942;28;25110;-61
2024/01/14 04:27:16;;;;;;;143.93;66.03;;;;;;;;;;4970274;28;25074;-60
2024/01/14 04:29:42;;;;;;;153.07;66.78;;;;;;;;;;4961652;28;25065;-61
2024/01/14 04:32:08;;;;;;;131.93;59.17;;;;;;;;;;4968869;28;25057;-61
2024/01/14 04:34:34;;;;;;;155.77;65.25;;;;;;;;;;4976566;28;25095;-61
2024/01/14 04:37:00;;;;;;;131.35;60.33;;;;;;;;;;4988325;28;25062;-61
2024/01/14 04:39:26;;;;;;;125.65;56.83;;;;;;;;;;4989957;28;25072;-60
2024/01/14 04:41:53;;;;;;;143.15;63.53;;;;;;;;;;4991543;28;25059;-61
2024/01/14 04:44:19;;;;;;;121.65;56.40;;;;;;;;;;4976013;28;25092;-59
2024/01/14 04:46:45;;;;;;;143.02;62.67;;;;;;;;;;4969716;28;25056;-61
2024/01/14 04:49:11;;;;;;;136.35;62.80;;;;;;;;;;4966202;28;25059;-61
2024/01/14 04:51:38;;;;;;;129.65;57.70;;;;;;;;;;4962565;28;25066;-60
2024/01/14 04:54:04;;;;;;;137.88;61.55;;;;;;;;;;4967620;28;25057;-60
2024/01/14 04:56:30;;;;;;;136.68;60.97;;;;;;;;;;4983868;28;25157;-62
2024/01/14 04:58:56;;;;;;;143.13;61.13;;;;;;;;;;4985399;28;25062;-61
2024/01/14 05:01:22;;;;;;;130.43;59.53;;;;;;;;;;4986341;28;25077;-59
2024/01/14 05:03:48;;;;;;;139.95;62.17;;;;;;;;;;4987337;28;25080;-61
2024/01/14 05:06:14;;;;;;;150.35;62.83;;;;;;;;;;4982253;28;25081;-60
2024/01/14 05:08:43;;;;;;;126.05;56.00;;;;;;;;;;4970877;28;25153;-60
2024/01/14 05:11:09;;;;;;;146.55;62.28;;;;;;;;;;4955720;28;25075;-60
2024/01/14 05:13:35;;;;;;;140.10;60.05;;;;;;;;;;4973976;28;25046;-60
2024/01/14 05:16:02;;;;;;;139.82;57.85;;;;;;;;;;4980330;28;25057;-60
2024/01/14 05:18:28;;;;;;;124.28;56.42;;;;;;;;;;4959368;28;25467;-61
2024/01/14 05:20:54;;;;;;;140.98;57.75;;;;;;;;;;4978649;28;25128;-60
2024/01/14 05:23:21;;;;;;;134.95;57.40;;;;;;;;;;4974443;28;25073;-60
2024/01/14 05:25:47;;;;;;;132.18;59.75;;;;;;;;;;4964347;28;25153;-61
2024/01/14 05:28:13;;;;;;;122.85;55.10;;;;;;;;;;4963641;28;25100;-60
2024/01/14 05:30:39;;;;;;;145.50;55.00;;;;;;;;;;4964234;28;25079;-61
2024/01/14 05:33:05;;;;;;;141.75;59.20;;;;;;;;;;4961268;28;25099;-60
2024/01/14 05:35:31;;;;;;;122.93;52.42;;;;;;;;;;4977580;28;25061;-60
2024/01/14 05:37:57;;;;;;;136.77;57.67;;;;;;;;;;4968714;28;25066;-60
2024/01/14 05:40:23;;;;;;;141.85;57.75;;;;;;;;;;4960672;28;25049;-60
2024/01/14 05:42:49;;;;;;;128.35;55.92;;;;;;;;;;4962542;28;25067;-60
2024/01/14 05:45:15;;;;;;;141.73;57.80;;;;;;;;;;4964270;28;25059;-61
2024/01/14 05:47:41;;;;;;;147.55;59.90;;;;;;;;;;4967344;28;25092;-60
2024/01/14 05:50:08;;;;;;;152.18;60.97;;;;;;;;;;4965814;28;25052;-60
2024/01/14 05:52:34;;;;;;;126.50;54.17;;;;;;;;;;4963052;28;25068;-62
2024/01/14 05:55:00;;;;;;;142.98;59.40;;;;;;;;;;4965769;28;25048;-61
2024/01/14 05:57:26;;;;;;;134.63;56.88;;;;;;;;;;4963659;28;25075;-60
2024/01/14 05:59:52;;;;;;;132.80;58.47;;;;;;;;;;4963476;28;25098;-61
2024/01/14 06:02:18;;;;;;;148.30;60.00;;;;;;;;;;4965917;28;25082;-62
2024/01/14 06:04:44;;;;;;;151.77;61.72;;;;;;;;;;4965304;28;25070;-60
2024/01/14 06:07:10;;;;;;;144.90;60.10;;;;;;;;;;4966283;28;25062;-62
2024/01/14 06:09:36;;;;;;;146.02;60.53;;;;;;;;;;4966709;28;25156;-60
2024/01/14 06:12:02;;;;;;;130.73;54.50;;;;;;;;;;4968465;28;25067;-60
2024/01/14 06:14:28;;;;;;;144.07;57.40;;;;;;;;;;4964116;28;25078;-60
2024/01/14 06:16:54;;;;;;;148.18;57.90;;;;;;;;;;4961169;28;25125;-60
2024/01/14 06:19:20;;;;;;;145.77;59.20;;;;;;;;;;4959939;28;25075;-60
2024/01/14 06:21:46;;;;;;;142.65;57.03;;;;;;;;;;4961059;28;25134;-60
2024/01/14 06:24:14;;;;;;;139.23;59.83;;;;;;;;;;4973293;28;25134;-62
2024/01/14 06:26:40;;;;;;;133.40;54.70;;;;;;;;;;4965146;28;25154;-62
2024/01/14 06:29:05;;;;;;;125.07;54.45;;;;;;;;;;4964714;28;25088;-61
2024/01/14 06:31:31;;;;;;;129.25;55.05;;;;;;;;;;4965744;28;25106;-60
2024/01/14 06:33:57;;;;;;;140.30;55.13;;;;;;;;;;4966509;28;25076;-60
2024/01/14 06:36:23;;;;;;;107.65;49.17;;;;;;;;;;4965832;28;25059;-60
2024/01/14 06:38:49;;;;;;;111.57;49.97;;;;;;;;;;4972426;28;25162;-61
2024/01/14 06:41:19;;;;;;;114.72;51.85;;;;;;;;;;4973786;28;25130;-60
2024/01/14 06:43:45;;;;;;;123.45;52.00;;;;;;;;;;4965266;28;25068;-61
2024/01/14 06:46:11;;;;;;;122.95;52.28;;;;;;;;;;4961937;28;25128;-60
2024/01/14 06:48:37;;;;;;;114.53;51.38;;;;;;;;;;4967022;28;25087;-62
2024/01/14 06:51:03;;;;;;;117.00;50.05;;;;;;;;;;4957915;28;25072;-61
2024/01/14 06:53:29;;;;;;;116.22;51.70;;;;;;;;;;4964535;28;25055;-61
2024/01/14 06:55:55;;;;;;;113.53;49.22;;;;;;;;;;4965546;28;25081;-60
2024/01/14 06:58:21;;;;;;;109.38;49.75;;;;;;;;;;4966850;28;25059;-65
2024/01/14 07:00:47;;;;;;;122.18;50.55;;;;;;;;;;4968832;28;25063;-62
2024/01/14 07:03:14;;;;;;;119.57;51.13;;;;;;;;;;4963739;28;25058;-62
2024/01/14 07:05:40;;;;;;;116.90;51.65;;;;;;;;;;4966585;28;25049;-60
2024/01/14 07:08:06;;;;;;;103.32;47.58;;;;;;;;;;4960512;28;25078;-62
2024/01/14 07:10:32;;;;;;;104.22;46.60;;;;;;;;;;4962061;28;25130;-60
2024/01/14 07:12:58;;;;;;;117.63;49.58;;;;;;;;;;4967675;28;25160;-61
2024/01/14 07:15:24;;;;;;;111.88;49.15;;;;;;;;;;4962167;28;25177;-60
2024/01/14 07:17:50;;;;;;;102.40;47.17;;;;;;;;;;4986179;28;25145;-60
2024/01/14 07:20:16;;;;;;;111.00;49.72;;;;;;;;;;4981171;28;25081;-61
2024/01/14 07:22:42;;;;;;;102.45;48.03;;;;;;;;;;4982445;28;25110;-60
2024/01/14 07:25:10;;;;;;;120.13;51.60;;;;;;;;;;4984186;28;25050;-59
2024/01/14 07:27:36;;;;;;;112.13;49.80;;;;;;;;;;4988304;28;25103;-62
2024/01/14 07:30:03;;;;;;;105.57;47.45;;;;;;;;;;4967805;28;25082;-60
2024/01/14 07:32:28;;;;;;;101.93;47.28;;;;;;;;;;4965889;28;25084;-60
2024/01/14 07:34:54;;;;;;;95.78;43.75;;;;;;;;;;4977756;28;25089;-61
2024/01/14 07:37:20;;;;;;;103.65;47.75;;;;;;;;;;4988708;28;25071;-60
2024/01/14 07:39:46;;;;;;;114.95;50.00;;;;;;;;;;4989081;28;25157;-60
2024/01/14 07:42:12;;;;;;;107.30;49.00;;;;;;;;;;4980780;28;25167;-61
2024/01/14 07:44:39;;;;;;;114.90;50.22;;;;;;;;;;4977371;28;25159;-61
2024/01/14 07:47:05;;;;;;;98.07;47.05;;;;;;;;;;4984080;28;25064;-61
2024/01/14 07:49:31;;;;;;;109.22;52.42;;;;;;;;;;4985096;28;25136;-61
2024/01/14 07:51:58;;;;;;;113.38;48.50;;;;;;;;;;4988379;28;25068;-60
2024/01/14 07:54:24;;;;;;;113.25;50.80;;;;;;;;;;4985513;28;25444;-61
2024/01/14 07:56:50;;;;;;;112.82;50.08;;;;;;;;;;4981952;28;25072;-60
2024/01/14 07:59:15;;;;;;;120.75;52.53;;;;;;;;;;4972946;28;25074;-60
2024/01/14 08:01:41;;;;;;;110.13;51.83;;;;;;;;;;4969168;28;25157;-61
2024/01/14 08:04:07;;;;;;;107.53;47.13;;;;;;;;;;4959946;28;25131;-61
2024/01/14 08:06:33;;;;;;;120.72;52.25;;;;;;;;;;4965717;28;25135;-61
2024/01/14 08:08:59;;;;;;;111.82;50.22;;;;;;;;;;4964160;28;25063;-61
2024/01/14 08:11:25;;;;;;;116.93;52.35;;;;;;;;;;4964817;28;25059;-61
2024/01/14 08:13:51;;;;;;;111.53;51.53;;;;;;;;;;4966999;28;25085;-61
2024/01/14 08:16:17;;;;;;;107.22;49.13;;;;;;;;;;4965847;28;25123;-61
2024/01/14 08:18:43;;;;;;;128.60;55.47;;;;;;;;;;4967832;28;25141;-60
2024/01/14 08:21:10;;;;;;;119.90;52.25;;;;;;;;;;4965845;28;25074;-61
2024/01/14 08:23:36;;;;;;;122.30;53.42;;;;;;;;;;4955084;28;25094;-62
2024/01/14 08:26:03;;;;;;;129.25;55.20;;;;;;;;;;4963388;28;25058;-61
2024/01/14 08:28:32;;;;;;;124.28;54.33;;;;;;;;;;4966254;28;25045;-61
2024/01/14 08:30:58;;;;;;;128.35;54.97;;;;;;;;;;4961486;28;25060;-62
2024/01/14 08:33:24;;;;;;;122.22;55.28;;;;;;;;;;4959199;28;25136;-62
2024/01/14 08:35:50;;;;;;;130.45;53.70;;;;;;;;;;4984697;28;25064;-61
2024/01/14 08:38:16;;;;;;;135.40;55.85;;;;;;;;;;4986293;28;25085;-61
2024/01/14 08:40:42;;;;;;;122.60;54.28;;;;;;;;;;4985418;28;25076;-60
2024/01/14 08:43:08;;;;;;;128.88;58.70;;;;;;;;;;4983358;28;25058;-60
2024/01/14 08:45:34;;;;;;;128.93;56.85;;;;;;;;;;4987573;28;25071;-62
2024/01/14 08:48:00;;;;;;;122.50;55.47;;;;;;;;;;4983506;28;25106;-60
2024/01/14 08:50:26;;;;;;;127.05;56.85;;;;;;;;;;4982097;28;25099;-60
2024/01/14 08:52:52;;;;;;;122.95;55.88;;;;;;;;;;4979523;28;25130;-61
2024/01/14 08:55:18;;;;;;;130.52;55.78;;;;;;;;;;4983299;28;25120;-62
2024/01/14 08:57:44;;;;;;;130.57;58.15;;;;;;;;;;4980785;28;25166;-61
2024/01/14 09:00:10;;;;;;;132.77;58.33;;;;;;;;;;4981251;28;25110;-60
2024/01/14 09:02:36;;;;;;;124.50;56.75;;;;;;;;;;4978074;28;25069;-60
2024/01/14 09:05:02;;;;;;;121.88;57.20;;;;;;;;;;4981743;28;25078;-60
2024/01/14 09:07:28;;;;;;;129.75;56.17;;;;;;;;;;4984957;28;25073;-59
2024/01/14 09:09:54;;;;;;;134.02;56.60;;;;;;;;;;4983819;28;25077;-62
2024/01/14 09:12:20;;;;;;;134.95;60.60;;;;;;;;;;4984525;28;25080;-60
2024/01/14 09:14:45;;;;;;;117.38;54.60;;;;;;;;;;4984857;28;25049;-60
2024/01/14 09:17:12;;;;;;;133.85;56.55;;;;;;;;;;4981750;28;25072;-60
2024/01/14 09:19:38;;;;;;;141.75;59.20;;;;;;;;;;4986090;28;25063;-61
2024/01/14 09:22:04;;;;;;;128.93;56.90;;;;;;;;;;4984084;28;25102;-61
2024/01/14 09:24:30;;;;;;;132.10;57.25;;;;;;;;;;4961893;28;25064;-63
2024/01/14 09:26:56;;;;;;;119.40;54.78;;;;;;;;;;4967437;28;25149;-60
2024/01/14 09:29:22;;;;;;;124.72;56.10;;;;;;;;;;4978731;28;25163;-60
2024/01/14 09:31:48;;;;;;;125.18;53.85;;;;;;;;;;4978745;28;25073;-62
2024/01/14 09:34:14;;;;;;;126.85;56.72;;;;;;;;;;4978379;28;25098;-62
2024/01/14 09:36:41;;;;;;;124.15;55.38;;;;;;;;;;4981586;28;25080;-63
2024/01/14 09:39:13;;;;;;;123.72;55.25;;;;;;;;;;4984863;28;25090;-62
2024/01/14 09:41:43;;;;;;;126.72;56.13;;;;;;;;;;4978506;28;25151;-62
2024/01/14 09:44:10;;;;;;;123.65;52.35;;;;;;;;;;4984572;28;25064;-62
2024/01/14 09:46:36;;;;;;;122.78;51.35;;;;;;;;;;4981801;28;25152;-60
2024/01/14 09:49:02;;;;;;;111.78;51.83;;;;;;;;;;4977115;28;25076;-60
2024/01/14 09:51:32;;;;;;;107.68;51.03;;;;;;;;;;4982211;28;25084;-61
2024/01/14 09:54:01;;;;;;;100.28;48.90;;;;;;;;;;4985411;28;25076;-60
2024/01/14 09:56:31;;;;;;;101.38;47.08;;;;;;;;;;4968266;28;25076;-60
2024/01/14 09:58:58;;;;;;;107.32;48.50;;;;;;;;;;4981260;28;25051;-61
2024/01/14 10:01:30;;;;;;;99.70;45.80;;;;;;;;;;4979611;28;25143;-62
2024/01/14 10:03:58;;;;;;;95.50;45.95;;;;;;;;;;4978392;28;25063;-60
2024/01/14 10:06:24;;;;;;;102.07;47.20;;;;;;;;;;4984182;28;25069;-63
2024/01/14 10:08:50;;;;;;;106.95;47.00;;;;;;;;;;4990132;28;25064;-61
2024/01/14 10:11:15;;;;;;;102.63;45.55;;;;;;;;;;4980663;28;25108;-61
2024/01/14 10:13:41;;;;;;;110.30;47.22;;;;;;;;;;4983065;28;25089;-61
2024/01/14 10:16:07;;;;;;;106.82;44.33;;;;;;;;;;4972926;28;25071;-63
2024/01/14 10:18:33;;;;;;;118.90;48.92;;;;;;;;;;4960941;28;25055;-60
2024/01/14 10:21:01;;;;;;;117.68;49.03;;;;;;;;;;4964468;28;25067;-61
2024/01/14 10:23:27;;;;;;;114.47;49.83;;;;;;;;;;4971144;28;25050;-59
2024/01/14 10:25:54;;;;;;;121.35;50.58;;;;;;;;;;4980254;28;25140;-61
2024/01/14 10:28:20;;;;;;;113.10;49.67;;;;;;;;;;4994268;28;25095;-63
2024/01/14 10:30:46;;;;;;;120.45;50.83;;;;;;;;;;4987117;28;25145;-60
2024/01/14 10:33:12;;;;;;;121.65;50.08;;;;;;;;;;4978399;28;25164;-60
2024/01/14 10:35:39;;;;;;;122.72;50.45;;;;;;;;;;4984957;28;25047;-60
2024/01/14 10:38:05;;;;;;;129.40;51.58;;;;;;;;;;4971309;28;25167;-63
2024/01/14 10:40:31;;;;;;;116.97;48.17;;;;;;;;;;4958981;28;25121;-63
2024/01/14 10:42:57;;;;;;;117.20;49.05;;;;;;;;;;4957525;28;25054;-60
2024/01/14 10:45:23;;;;;;;111.78;47.13;;;;;;;;;;4974001;28;25106;-62
2024/01/14 10:47:53;;;;;;;105.78;45.55;;;;;;;;;;4972348;28;25136;-61
2024/01/14 10:50:20;;;;;;;103.95;45.20;;;;;;;;;;4977144;28;25069;-62
2024/01/14 10:52:48;;;;;;;115.72;47.35;;;;;;;;;;4988100;28;25090;-62
2024/01/14 10:55:31;;;;;;;111.82;46.33;;;;;;;;;;4986745;28;25147;-59
2024/01/14 10:57:57;;;;;;;;;;;;;;;;;;4969223;28;25056;-62
2024/01/14 11:00:23;;;;;;;121.78;48.85;;;;;;;;;;4992261;28;25132;-59
2024/01/14 11:02:49;;;;;;;118.32;49.40;;;;;;;;;;4998844;28;25076;-60
2024/01/14 11:05:15;;;;;;;127.07;48.60;;;;;;;;;;4989546;28;25081;-61
2024/01/14 11:07:41;;;;;;;130.23;47.97;;;;;;;;;;4976102;28;24821;-62
2024/01/14 11:10:10;;;;;;;116.78;46.53;;;;;;;;;;4984549;28;25090;-61
2024/01/14 11:12:47;;;;;;;126.47;47.10;;;;;;;;;;4974540;28;25061;-59
2024/01/14 11:15:15;;;;;;;121.78;47.03;;;;;;;;;;4991179;28;25060;-60
2024/01/14 11:17:58;;;;;;;121.35;46.70;;;;;;;;;;4990246;28;25136;-62
2024/01/14 11:20:26;;;;;;;121.95;46.92;;;;;;;;;;4986787;28;25073;-60
2024/01/14 11:22:52;;;;;;;119.45;48.65;;;;;;;;;;4980028;28;25059;-60
2024/01/14 11:25:21;;;;;;;122.80;47.85;;;;;;;;;;4966764;28;25056;-59
2024/01/14 11:27:48;;;;;;;108.38;44.65;;;;;;;;;;4976568;28;25184;-60
2024/01/14 11:30:18;;;;;;;137.27;51.95;;;;;;;;;;4991228;28;25097;-60
2024/01/14 11:32:44;;;;;;;135.40;50.58;;;;;;;;;;4992569;28;25099;-59
2024/01/14 11:35:11;;;;;;;130.68;50.80;;;;;;;;;;4990197;28;25495;-62
2024/01/14 11:37:40;;;;;;;130.38;51.95;;;;;;;;;;4994354;28;25090;-60
2024/01/14 11:40:06;;;;;;;140.18;54.83;;;;;;;;;;4987658;28;25074;-62
2024/01/14 11:42:32;;;;;;;135.55;50.72;;;;;;;;;;4990757;28;25082;-62
2024/01/14 11:45:02;;;;;;;131.45;50.35;;;;;;;;;;4967793;28;25069;-61
2024/01/14 11:47:37;;;;;;;140.57;53.00;;;;;;;;;;4986470;28;25068;-60
2024/01/14 11:50:08;;;;;;;129.45;51.05;;;;;;;;;;4998822;28;25134;-61
2024/01/14 11:52:36;;;;;;;122.63;49.72;;;;;;;;;;4987176;28;25075;-61
2024/01/14 11:55:05;;;;;;;122.07;49.13;;;;;;;;;;4987657;28;25150;-62
2024/01/14 11:57:32;;;;;;;126.00;48.03;;;;;;;;;;4994771;28;25076;-61
2024/01/14 11:59:58;;;;;;;117.32;48.20;;;;;;;;;;4981802;28;25052;-60
2024/01/14 12:02:24;;;;;;;124.72;49.33;;;;;;;;;;4966161;28;25085;-61
2024/01/14 12:04:51;;;;;;;118.50;47.72;;;;;;;;;;4961136;28;25150;-61
2024/01/14 12:07:21;;;;;;;120.95;47.65;;;;;;;;;;4966447;28;25063;-60
2024/01/14 12:09:54;;;;;;;117.80;48.00;;;;;;;;;;4972099;28;25077;-60
2024/01/14 12:12:20;;;;;;;119.82;49.13;;;;;;;;;;4965025;28;25099;-64
2024/01/14 12:14:45;;;;;;;96.18;45.38;;;;;;;;;;4964162;28;25098;-60
2024/01/14 12:17:12;;;;;;;107.75;47.58;;;;;;;;;;4961243;28;25064;-61
2024/01/14 12:19:38;;;;;;;97.47;45.50;;;;;;;;;;4971529;28;25070;-62
2024/01/14 12:22:04;;;;;;;116.35;48.25;;;;;;;;;;4972780;28;25127;-61
2024/01/14 12:24:30;;;;;;;117.25;49.72;;;;;;;;;;4994857;28;25091;-62
2024/01/14 12:26:58;;;;;;;120.63;50.72;;;;;;;;;;4993487;28;25154;-61
2024/01/14 12:29:30;;;;;;;122.20;49.63;;;;;;;;;;4996210;28;25080;-63
2024/01/14 12:31:56;;;;;;;;;;;;;;;;;;4988139;28;25125;-60
2024/01/14 12:34:23;;;;;;;115.32;48.05;;;;;;;;;;4994185;28;24075;-63
2024/01/14 12:36:49;;;;;;;120.20;49.25;;;;;;;;;;4992041;28;25061;-61
2024/01/14 12:39:16;;;;;;;121.47;50.05;;;;;;;;;;4993694;28;25063;-61
2024/01/14 12:41:42;;;;;;;117.20;50.83;;;;;;;;;;4986216;28;25134;-62
2024/01/14 12:44:08;;;;;;;115.10;48.08;;;;;;;;;;4983541;28;25051;-60
2024/01/14 12:46:33;;;;;;;107.20;47.80;;;;;;;;;;4988737;28;25078;-61
2024/01/14 12:49:06;;;;;;;108.97;46.75;;;;;;;;;;4985922;28;25142;-61
2024/01/14 12:51:32;;;;;;;94.18;42.40;;;;;;;;;;4989355;28;25113;-60
2024/01/14 12:53:58;;;;;;;81.00;39.60;;;;;;;;;;4986935;28;25061;-62
2024/01/14 12:56:24;;;;;;;101.60;42.97;;;;;;;;;;4982036;28;25072;-60
2024/01/14 12:58:51;;;;;;;101.13;42.58;;;;;;;;;;4961738;28;25140;-60
2024/01/14 13:01:17;;;;;;;98.38;43.30;;;;;;;;;;4972001;28;25057;-61
2024/01/14 13:03:43;;;;;;;100.15;43.40;;;;;;;;;;4988364;28;25069;-60
2024/01/14 13:06:09;;;;;;;102.95;47.08;;;;;;;;;;4995541;28;25146;-59
2024/01/14 13:08:35;;;;;;;105.43;45.50;;;;;;;;;;4971732;28;25055;-61
2024/01/14 13:11:01;;;;;;;123.35;51.58;;;;;;;;;;4968134;28;25068;-61
2024/01/14 13:13:28;;;;;;;129.50;51.08;;;;;;;;;;4977207;28;25051;-61
2024/01/14 13:15:54;;;;;;;118.28;49.47;;;;;;;;;;4989240;28;25077;-61
2024/01/14 13:18:21;;;;;;;143.95;54.72;;;;;;;;;;4981809;28;25112;-62
2024/01/14 13:20:47;;;;;;;125.32;50.30;;;;;;;;;;4970045;28;25097;-60
2024/01/14 13:23:13;;;;;;;136.75;52.72;;;;;;;;;;4967179;28;25084;-61
2024/01/14 13:25:39;;;;;;;144.38;55.00;;;;;;;;;;4963947;28;25075;-60
2024/01/14 13:28:05;;;;;;;146.52;55.53;;;;;;;;;;4967657;28;25078;-62
2024/01/14 13:30:31;;;;;;;144.07;54.38;;;;;;;;;;4962864;28;25084;-62
2024/01/14 13:32:57;;;;;;;132.40;52.63;;;;;;;;;;4962352;28;25048;-61
2024/01/14 13:35:23;;;;;;;132.38;53.45;;;;;;;;;;4963496;28;25065;-61
2024/01/14 13:37:49;;;;;;;135.70;54.88;;;;;;;;;;4973495;28;25063;-63
2024/01/14 13:40:16;;;;;;;129.52;51.30;;;;;;;;;;4984239;28;25060;-61
2024/01/14 13:42:42;;;;;;;119.22;50.25;;;;;;;;;;4978585;28;25059;-61
2024/01/14 13:45:09;;;;;;;111.45;49.65;;;;;;;;;;4963538;28;25068;-61
2024/01/14 13:47:35;;;;;;;111.57;47.83;;;;;;;;;;4966876;28;25058;-61
2024/01/14 13:50:02;;;;;;;113.22;48.38;;;;;;;;;;4973918;28;25048;-60
2024/01/14 13:52:28;;;;;;;106.65;47.28;;;;;;;;;;4974800;28;25078;-60
2024/01/14 13:54:54;;;;;;;99.65;46.75;;;;;;;;;;4963285;28;25082;-61
2024/01/14 13:57:21;;;;;;;103.82;46.90;;;;;;;;;;4968811;28;25048;-61
2024/01/14 13:59:48;;;;;;;97.07;47.80;;;;;;;;;;4963850;28;25086;-62
2024/01/14 14:02:15;;;;;;;98.80;46.05;;;;;;;;;;4962472;28;25079;-61